createdAt,value
2022-09-15T00:01:01.826Z,24.0700
2022-09-15T00:02:04.251Z,24.0800
2022-09-15T00:03:06.440Z,24.0600
2022-09-15T00:04:06.457Z,24.1000
2022-09-15T00:05:08.757Z,24.0800
2022-09-15T00:06:10.963Z,24.1100
2022-09-15T00:07:13.216Z,24.1100
2022-09-15T00:08:15.475Z,24.1100
2022-09-15T00:09:17.695Z,24.0600
2022-09-15T00:10:19.974Z,24.0400
2022-09-15T00:11:22.182Z,24.0400
2022-09-15T00:12:24.423Z,24.0700
2022-09-15T00:13:24.514Z,24.0500
2022-09-15T00:14:26.823Z,24.0700
2022-09-15T00:15:28.969Z,24.0700
2022-09-15T00:16:31.294Z,24.0700
2022-09-15T00:17:33.433Z,24.0800
2022-09-15T00:18:35.744Z,24.0700
2022-09-15T00:19:37.992Z,24.0600
2022-09-15T00:20:40.311Z,24.0400
2022-09-15T00:21:42.559Z,24.0100
2022-09-15T00:22:44.775Z,23.9900
2022-09-15T00:23:44.905Z,23.8900
2022-09-15T00:24:47.175Z,23.8700
2022-09-15T00:25:49.467Z,23.9100
2022-09-15T00:26:51.718Z,23.9300
2022-09-15T00:27:53.976Z,23.9700
2022-09-15T00:28:56.240Z,24.0000
2022-09-15T00:29:58.467Z,24.0000
2022-09-15T00:31:00.770Z,24.0300
2022-09-15T00:32:02.885Z,24.0300
2022-09-15T00:33:03.009Z,24.0100
2022-09-15T00:34:05.234Z,24.0400
2022-09-15T00:35:07.477Z,24.0700
2022-09-15T00:36:09.733Z,24.0300
2022-09-15T00:37:11.955Z,24.0200
2022-09-15T00:38:14.198Z,24.0500
2022-09-15T00:39:16.397Z,24.0200
2022-09-15T00:40:18.661Z,24.0200
2022-09-15T00:41:20.874Z,24.0000
2022-09-15T00:42:22.969Z,24.0200
2022-09-15T00:43:25.203Z,24.0200
2022-09-15T00:44:27.440Z,24.0000
2022-09-15T00:45:27.660Z,24.0000
2022-09-15T00:46:29.807Z,24.0000
2022-09-15T00:47:32.041Z,24.0300
2022-09-15T00:48:34.281Z,23.9800
2022-09-15T00:49:36.529Z,23.9400
2022-09-15T00:50:38.722Z,23.8700
2022-09-15T00:51:40.929Z,23.8900
2022-09-15T00:52:43.113Z,23.8600
2022-09-15T00:53:45.337Z,23.7800
2022-09-15T00:54:41.652Z,23.7100
2022-09-15T00:56:43.417Z,23.8000
2022-09-15T00:57:45.563Z,23.8200
2022-09-15T00:58:47.758Z,23.8300
2022-09-15T00:59:49.960Z,23.8500
2022-09-15T01:00:52.241Z,23.8300
2022-09-15T01:01:54.457Z,23.8500
2022-09-15T01:02:56.601Z,23.8300
2022-09-15T01:03:58.824Z,23.8400
2022-09-15T01:05:01.041Z,23.7900
2022-09-15T01:06:03.218Z,23.8200
2022-09-15T01:07:05.442Z,23.8000
2022-09-15T01:08:07.604Z,23.8300
2022-09-15T01:09:09.800Z,23.8100
2022-09-15T01:10:09.849Z,23.8300
2022-09-15T01:11:12.065Z,23.8300
2022-09-15T01:12:14.336Z,23.8100
2022-09-15T01:13:16.540Z,23.7200
2022-09-15T01:14:18.738Z,23.7100
2022-09-15T01:15:20.945Z,23.7100
2022-09-15T01:16:23.215Z,23.7400
2022-09-15T01:17:25.364Z,23.7500
2022-09-15T01:18:27.492Z,23.7100
2022-09-15T01:19:29.702Z,23.7100
2022-09-15T01:20:31.901Z,23.7800
2022-09-15T01:21:34.118Z,23.7900
2022-09-15T01:22:36.346Z,23.8200
2022-09-15T01:23:38.486Z,23.7800
2022-09-15T01:24:40.709Z,23.7700
2022-09-15T01:25:42.906Z,23.7500
2022-09-15T01:26:45.107Z,23.7600
2022-09-15T01:27:45.217Z,23.7800
2022-09-15T01:28:47.377Z,23.7700
2022-09-15T01:29:49.569Z,23.8100
2022-09-15T01:30:51.775Z,23.7800
2022-09-15T01:31:54.016Z,23.7500
2022-09-15T01:32:56.248Z,23.6700
2022-09-15T01:33:58.425Z,23.6300
2022-09-15T01:35:00.644Z,23.6000
2022-09-15T01:36:02.869Z,23.6700
2022-09-15T01:37:05.092Z,23.6500
2022-09-15T01:38:07.313Z,23.6600
2022-09-15T01:39:09.483Z,23.6200
2022-09-15T01:40:11.803Z,23.6200
2022-09-15T01:41:13.944Z,23.6600
2022-09-15T01:42:16.188Z,23.6500
2022-09-15T01:43:16.269Z,23.6600
2022-09-15T01:44:18.494Z,23.6700
2022-09-15T01:45:20.741Z,23.6500
2022-09-15T01:46:22.893Z,23.6700
2022-09-15T01:47:25.137Z,23.6000
2022-09-15T01:48:27.555Z,23.5900
2022-09-15T01:49:29.544Z,23.5600
2022-09-15T01:50:31.775Z,23.5700
2022-09-15T01:51:33.994Z,23.5800
2022-09-15T01:52:36.228Z,23.5800
2022-09-15T01:53:38.475Z,23.6100
2022-09-15T01:54:40.667Z,23.5500
2022-09-15T01:55:42.897Z,23.5600
2022-09-15T01:56:42.985Z,23.5800
2022-09-15T01:57:45.174Z,23.6200
2022-09-15T01:58:47.433Z,23.6000
2022-09-15T01:59:49.601Z,23.4600
2022-09-15T02:00:51.859Z,23.3800
2022-09-15T02:01:54.047Z,23.3700
2022-09-15T02:02:56.298Z,23.4000
2022-09-15T02:03:58.481Z,23.4700
2022-09-15T02:05:00.682Z,23.5400
2022-09-15T02:06:02.896Z,23.5300
2022-09-15T02:07:05.126Z,23.4800
2022-09-15T02:08:07.357Z,23.5100
2022-09-15T02:09:09.614Z,23.5000
2022-09-15T02:10:09.669Z,23.4900
2022-09-15T02:11:11.902Z,23.5400
2022-09-15T02:12:14.130Z,23.5600
2022-09-15T02:13:16.369Z,23.5300
2022-09-15T02:14:18.630Z,23.5500
2022-09-15T02:15:20.825Z,23.5200
2022-09-15T02:16:23.099Z,23.5100
2022-09-15T02:17:25.246Z,23.5600
2022-09-15T02:18:27.503Z,23.5600
2022-09-15T02:19:29.725Z,23.6000
2022-09-15T02:20:31.912Z,23.6200
2022-09-15T02:21:34.150Z,23.6200
2022-09-15T02:22:34.242Z,23.6200
2022-09-15T02:23:36.461Z,23.6600
2022-09-15T02:24:38.719Z,23.6800
2022-09-15T02:25:40.913Z,23.7100
2022-09-15T02:26:43.140Z,23.7100
2022-09-15T02:27:45.365Z,23.6800
2022-09-15T02:28:47.533Z,23.6600
2022-09-15T02:29:49.775Z,23.5400
2022-09-15T02:30:51.947Z,23.5800
2022-09-15T02:31:54.314Z,23.6000
2022-09-15T02:32:56.395Z,23.6500
2022-09-15T02:33:58.632Z,23.6400
2022-09-15T02:35:00.874Z,23.6500
2022-09-15T02:36:00.954Z,23.6800
2022-09-15T02:37:03.218Z,23.7000
2022-09-15T02:38:05.475Z,23.7100
2022-09-15T02:39:07.652Z,23.7100
2022-09-15T02:40:09.956Z,23.7400
2022-09-15T02:41:12.037Z,23.7300
2022-09-15T02:42:14.214Z,23.7600
2022-09-15T02:43:16.415Z,23.7700
2022-09-15T02:44:18.602Z,23.7500
2022-09-15T02:45:20.883Z,23.7500
2022-09-15T02:46:22.999Z,23.7000
2022-09-15T02:47:25.206Z,23.6600
2022-09-15T02:48:27.417Z,23.6400
2022-09-15T02:50:02.035Z,23.5300
2022-09-15T02:51:04.187Z,23.5200
2022-09-15T02:52:06.319Z,23.5200
2022-09-15T02:53:06.367Z,23.5000
2022-09-15T02:54:08.562Z,23.5200
2022-09-15T02:55:10.759Z,23.5400
2022-09-15T02:56:12.965Z,23.5200
2022-09-15T02:57:15.082Z,23.5000
2022-09-15T02:58:17.240Z,23.5200
2022-09-15T02:59:19.403Z,23.4500
2022-09-15T03:00:21.543Z,23.4400
2022-09-15T03:01:23.864Z,23.4700
2022-09-15T03:02:25.957Z,23.4800
2022-09-15T03:03:28.077Z,23.4700
2022-09-15T03:04:30.195Z,23.4800
2022-09-15T03:05:32.408Z,23.4600
2022-09-15T03:06:34.596Z,23.4400
2022-09-15T03:07:36.747Z,23.4200
2022-09-15T03:08:38.869Z,23.4500
2022-09-15T03:09:41.052Z,23.4700
2022-09-15T03:10:43.258Z,23.4100
2022-09-15T03:11:45.469Z,23.3800
2022-09-15T03:12:47.642Z,23.3700
2022-09-15T03:13:49.857Z,23.3900
2022-09-15T03:14:52.051Z,23.3600
2022-09-15T03:15:52.180Z,23.3500
2022-09-15T03:16:54.354Z,23.3600
2022-09-15T03:17:56.541Z,23.3700
2022-09-15T03:18:58.764Z,23.3800
2022-09-15T03:20:00.962Z,23.3700
2022-09-15T03:21:03.178Z,23.3900
2022-09-15T03:22:05.385Z,23.3500
2022-09-15T03:23:07.538Z,23.2900
2022-09-15T03:24:09.666Z,23.2600
2022-09-15T03:25:11.758Z,23.2000
2022-09-15T03:26:13.861Z,23.2400
2022-09-15T03:27:16.004Z,23.2600
2022-09-15T03:28:16.583Z,23.2400
2022-09-15T03:29:18.011Z,23.1700
2022-09-15T03:30:20.164Z,23.1600
2022-09-15T03:31:20.282Z,23.1700
2022-09-15T03:32:22.472Z,23.1700
2022-09-15T03:33:24.603Z,23.2100
2022-09-15T03:34:26.772Z,23.1900
2022-09-15T03:35:28.903Z,23.2200
2022-09-15T03:36:31.117Z,23.2200
2022-09-15T03:37:33.333Z,23.2200
2022-09-15T03:38:35.509Z,23.2100
2022-09-15T03:39:37.721Z,23.2000
2022-09-15T03:40:39.925Z,23.2200
2022-09-15T03:41:42.139Z,23.2200
2022-09-15T03:42:44.347Z,23.2300
2022-09-15T03:43:46.491Z,23.2100
2022-09-15T03:44:48.700Z,23.1900
2022-09-15T03:45:50.968Z,23.0900
2022-09-15T03:46:53.119Z,23.1000
2022-09-15T03:47:55.369Z,23.0500
2022-09-15T03:48:57.539Z,23.1000
2022-09-15T03:49:59.765Z,23.1700
2022-09-15T03:50:59.842Z,23.1800
2022-09-15T03:52:02.074Z,23.1800
2022-09-15T03:53:04.285Z,23.1400
2022-09-15T03:54:06.508Z,23.0700
2022-09-15T03:55:08.745Z,23.0800
2022-09-15T03:56:10.981Z,23.0700
2022-09-15T03:57:13.222Z,23.0500
2022-09-15T03:58:15.501Z,23.0700
2022-09-15T03:59:17.708Z,22.9200
2022-09-15T04:00:19.954Z,22.9900
2022-09-15T04:01:22.290Z,23.0100
2022-09-15T04:02:22.317Z,22.8900
2022-09-15T04:03:24.476Z,22.7700
2022-09-15T04:04:26.662Z,22.8200
2022-09-15T04:05:28.893Z,22.6600
2022-09-15T04:06:31.126Z,22.7000
2022-09-15T04:07:33.430Z,22.7800
2022-09-15T04:08:35.730Z,22.8700
2022-09-15T04:09:37.978Z,22.9300
2022-09-15T04:10:40.243Z,22.9000
2022-09-15T04:11:42.515Z,22.7800
2022-09-15T04:12:44.811Z,22.5400
2022-09-15T04:13:47.112Z,22.4500
2022-09-15T04:14:49.362Z,22.2500
2022-09-15T04:15:51.682Z,22.2200
2022-09-15T04:16:53.842Z,22.3500
2022-09-15T04:17:56.113Z,22.4400
2022-09-15T04:18:56.290Z,22.5800
2022-09-15T04:19:58.531Z,22.6800
2022-09-15T04:21:00.788Z,22.7400
2022-09-15T04:22:03.023Z,22.8000
2022-09-15T04:23:05.307Z,22.8400
2022-09-15T04:24:07.590Z,22.8800
2022-09-15T04:25:09.828Z,22.9000
2022-09-15T04:26:12.041Z,22.8900
2022-09-15T04:27:12.164Z,22.9000
2022-09-15T04:28:14.465Z,22.8800
2022-09-15T04:29:16.785Z,22.8300
2022-09-15T04:30:19.055Z,22.8300
2022-09-15T04:31:21.389Z,22.8100
2022-09-15T04:32:23.628Z,22.7700
2022-09-15T04:33:25.909Z,22.7800
2022-09-15T04:34:41.614Z,22.7300
2022-09-15T04:35:41.188Z,22.7800
2022-09-15T04:36:43.379Z,22.8000
2022-09-15T04:37:45.563Z,22.8300
2022-09-15T04:38:47.760Z,22.8300
2022-09-15T04:39:49.964Z,22.8300
2022-09-15T04:40:52.089Z,22.8200
2022-09-15T04:41:54.334Z,22.7900
2022-09-15T04:42:56.571Z,22.7600
2022-09-15T04:43:58.691Z,22.5500
2022-09-15T04:45:00.898Z,22.5900
2022-09-15T04:46:03.009Z,22.4900
2022-09-15T04:47:05.326Z,22.1500
2022-09-15T04:48:07.417Z,22.1800
2022-09-15T04:49:09.649Z,22.3300
2022-09-15T04:50:11.894Z,22.4400
2022-09-15T04:51:13.997Z,22.5300
2022-09-15T04:52:16.208Z,22.6400
2022-09-15T04:53:18.440Z,22.6200
2022-09-15T04:54:20.665Z,22.6400
2022-09-15T04:55:20.751Z,22.6500
2022-09-15T04:56:22.978Z,22.6700
2022-09-15T04:57:25.226Z,22.6800
2022-09-15T04:58:27.436Z,22.6700
2022-09-15T04:59:29.579Z,22.7000
2022-09-15T05:00:31.842Z,22.7100
2022-09-15T05:01:34.116Z,22.6000
2022-09-15T05:02:36.272Z,22.5800
2022-09-15T05:03:38.394Z,22.6300
2022-09-15T05:04:40.586Z,22.6800
2022-09-15T05:05:42.909Z,22.6400
2022-09-15T05:06:44.973Z,22.6800
2022-09-15T05:07:47.145Z,22.6300
2022-09-15T05:08:49.226Z,22.6400
2022-09-15T05:09:50.340Z,22.6600
2022-09-15T05:10:52.632Z,22.5400
2022-09-15T05:11:53.796Z,22.4400
2022-09-15T05:12:55.990Z,22.5300
2022-09-15T05:13:56.098Z,22.6000
2022-09-15T05:14:58.384Z,22.6200
2022-09-15T05:16:00.768Z,22.4800
2022-09-15T05:17:02.992Z,22.3200
2022-09-15T05:18:07.322Z,22.4300
2022-09-15T05:18:45.972Z,22.5100
2022-09-15T05:19:48.246Z,22.5700
2022-09-15T05:20:48.327Z,22.5900
2022-09-15T05:21:50.646Z,22.6500
2022-09-15T05:22:52.881Z,22.6200
2022-09-15T05:23:55.159Z,22.6300
2022-09-15T05:24:57.464Z,22.6400
2022-09-15T05:25:59.753Z,22.6500
2022-09-15T05:27:02.068Z,22.6800
2022-09-15T05:28:04.329Z,22.7100
2022-09-15T05:29:04.465Z,22.7100
2022-09-15T05:30:34.879Z,22.7000
2022-09-15T05:31:09.064Z,22.7200
2022-09-15T05:32:11.312Z,22.7500
2022-09-15T05:33:13.583Z,22.7400
2022-09-15T05:34:15.870Z,22.7500
2022-09-15T05:35:18.104Z,22.7300
2022-09-15T05:36:18.157Z,22.7000
2022-09-15T05:37:20.416Z,22.6100
2022-09-15T05:38:22.605Z,22.6700
2022-09-15T05:39:24.873Z,22.7000
2022-09-15T05:40:27.268Z,22.7100
2022-09-15T05:41:29.471Z,22.7300
2022-09-15T05:42:31.717Z,22.7300
2022-09-15T05:43:33.882Z,22.7300
2022-09-15T05:44:59.322Z,22.6600
2022-09-15T05:46:02.243Z,22.7400
2022-09-15T05:47:04.236Z,22.7500
2022-09-15T05:48:06.487Z,22.7100
2022-09-15T05:49:06.561Z,22.7300
2022-09-15T05:50:08.816Z,22.7000
2022-09-15T05:51:11.065Z,22.7300
2022-09-15T05:52:13.250Z,22.7400
2022-09-15T05:53:15.474Z,22.7700
2022-09-15T05:54:17.659Z,22.7100
2022-09-15T05:55:19.865Z,22.7100
2022-09-15T05:56:22.084Z,22.7700
2022-09-15T05:57:24.264Z,22.7900
2022-09-15T05:58:26.537Z,22.7200
2022-09-15T05:59:28.736Z,22.7000
2022-09-15T06:00:30.975Z,22.7100
2022-09-15T06:01:33.233Z,22.6900
2022-09-15T06:02:35.395Z,22.6700
2022-09-15T06:03:37.536Z,22.7100
2022-09-15T06:04:37.588Z,22.7500
2022-09-15T06:05:39.802Z,22.7400
2022-09-15T06:07:54.012Z,22.7200
2022-09-15T06:08:58.403Z,22.7200
2022-09-15T06:09:56.304Z,22.7200
2022-09-15T06:10:58.551Z,22.7400
2022-09-15T06:12:00.828Z,22.7500
2022-09-15T06:13:03.055Z,22.7700
2022-09-15T06:14:05.300Z,22.7600
2022-09-15T06:15:07.525Z,22.8100
2022-09-15T06:16:09.896Z,22.8200
2022-09-15T06:17:12.050Z,22.8100
2022-09-15T06:18:14.330Z,22.8400
2022-09-15T06:18:59.397Z,22.8500
2022-09-15T06:20:01.714Z,22.8700
2022-09-15T06:21:03.986Z,22.8300
2022-09-15T06:22:06.197Z,22.8200
2022-09-15T06:23:08.446Z,22.8300
2022-09-15T06:24:10.671Z,22.8400
2022-09-15T06:25:12.960Z,22.8200
2022-09-15T06:26:15.175Z,22.8400
2022-09-15T06:27:15.297Z,22.8300
2022-09-15T06:28:17.555Z,22.8300
2022-09-15T06:29:19.810Z,22.8400
2022-09-15T06:30:22.139Z,22.8500
2022-09-15T06:31:24.435Z,22.8800
2022-09-15T06:32:26.597Z,22.8800
2022-09-15T06:33:28.815Z,22.8900
2022-09-15T06:34:31.034Z,22.8900
2022-09-15T06:35:33.304Z,22.8500
2022-09-15T06:36:33.361Z,22.8800
2022-09-15T06:37:35.552Z,22.8700
2022-09-15T06:38:37.704Z,22.9200
2022-09-15T06:39:39.920Z,22.9500
2022-09-15T06:40:42.213Z,22.9100
2022-09-15T06:42:01.862Z,22.9000
2022-09-15T06:42:46.694Z,22.9200
2022-09-15T06:43:48.973Z,22.9300
2022-09-15T06:44:51.227Z,22.9500
2022-09-15T06:45:53.589Z,22.9500
2022-09-15T06:46:55.797Z,22.9600
2022-09-15T06:48:20.256Z,22.9400
2022-09-15T06:48:58.249Z,22.9100
2022-09-15T06:50:02.649Z,22.9300
2022-09-15T06:51:02.827Z,22.9100
2022-09-15T06:52:05.076Z,22.9400
2022-09-15T06:53:07.363Z,22.9500
2022-09-15T06:54:07.489Z,22.9600
2022-09-15T06:55:09.695Z,23.0000
2022-09-15T06:56:11.998Z,23.0200
2022-09-15T06:57:14.268Z,23.0100
2022-09-15T06:58:16.576Z,23.0200
2022-09-15T06:59:18.767Z,22.9900
2022-09-15T07:00:20.960Z,22.9600
2022-09-15T07:01:23.223Z,22.9600
2022-09-15T07:02:25.539Z,22.9200
2022-09-15T07:03:25.660Z,22.9400
2022-09-15T07:04:27.774Z,22.9500
2022-09-15T07:05:30.012Z,22.9900
2022-09-15T07:06:32.251Z,22.9500
2022-09-15T07:07:34.446Z,22.9500
2022-09-15T07:08:36.722Z,22.9800
2022-09-15T07:09:41.361Z,23.0100
2022-09-15T07:10:41.212Z,22.9900
2022-09-15T07:11:43.455Z,23.0000
2022-09-15T07:12:45.689Z,23.0000
2022-09-15T07:13:47.939Z,22.9800
2022-09-15T07:14:48.003Z,23.0100
2022-09-15T07:15:50.296Z,23.0100
2022-09-15T07:16:52.530Z,23.0200
2022-09-15T07:17:54.754Z,23.0000
2022-09-15T07:18:56.999Z,23.0000
2022-09-15T07:19:59.207Z,23.0100
2022-09-15T07:21:01.421Z,23.0200
2022-09-15T07:22:03.652Z,22.9900
2022-09-15T07:23:05.870Z,22.9400
2022-09-15T07:24:08.117Z,22.9300
2022-09-15T07:25:08.229Z,22.9300
2022-09-15T07:26:10.476Z,22.9600
2022-09-15T07:27:12.765Z,22.9600
2022-09-15T07:28:15.029Z,22.9800
2022-09-15T07:29:16.172Z,22.9700
2022-09-15T07:30:18.457Z,22.8500
2022-09-15T07:30:28.163Z,22.8300
2022-09-15T07:31:30.450Z,22.9000
2022-09-15T07:32:32.662Z,22.9500
2022-09-15T07:33:34.902Z,23.0000
2022-09-15T07:34:37.147Z,23.0300
2022-09-15T07:35:39.401Z,23.0400
2022-09-15T07:36:41.618Z,23.0700
2022-09-15T07:37:43.869Z,23.0600
2022-09-15T07:38:46.066Z,23.0700
2022-09-15T07:39:48.341Z,23.0600
2022-09-15T07:40:48.420Z,23.0500
2022-09-15T07:41:50.671Z,23.0200
2022-09-15T07:42:53.004Z,22.9800
2022-09-15T07:43:55.313Z,22.9700
2022-09-15T07:44:57.607Z,22.9800
2022-09-15T07:45:59.913Z,22.9500
2022-09-15T07:47:02.171Z,22.9500
2022-09-15T07:48:02.339Z,22.9300
2022-09-15T07:49:04.635Z,22.9500
2022-09-15T07:50:06.934Z,22.9000
2022-09-15T07:51:09.194Z,22.9300
2022-09-15T07:52:11.448Z,22.9700
2022-09-15T07:53:13.742Z,22.9800
2022-09-15T07:54:19.565Z,22.9200
2022-09-15T07:55:18.261Z,22.9100
2022-09-15T07:56:18.379Z,22.9000
2022-09-15T07:57:20.628Z,22.9200
2022-09-15T07:58:22.944Z,22.9300
2022-09-15T07:59:25.145Z,22.9500
2022-09-15T08:00:27.487Z,22.9300
2022-09-15T08:01:29.725Z,22.9500
2022-09-15T08:02:31.966Z,22.9800
2022-09-15T08:04:36.509Z,22.9400
2022-09-15T08:05:42.299Z,22.9400
2022-09-15T08:06:39.649Z,22.9500
2022-09-15T08:07:40.846Z,22.9600
2022-09-15T08:08:43.040Z,22.9500
2022-09-15T08:09:45.261Z,22.8700
2022-09-15T08:10:47.391Z,22.8500
2022-09-15T08:11:49.548Z,22.8800
2022-09-15T08:12:51.749Z,22.8800
2022-09-15T08:13:53.936Z,22.9000
2022-09-15T08:14:56.146Z,22.9400
2022-09-15T08:15:58.340Z,22.9600
2022-09-15T08:17:00.471Z,22.9500
2022-09-15T08:18:00.540Z,22.9700
2022-09-15T08:19:02.757Z,22.9900
2022-09-15T08:20:05.033Z,23.0100
2022-09-15T08:21:07.230Z,23.0200
2022-09-15T08:22:09.505Z,23.0200
2022-09-15T08:23:11.751Z,22.9800
2022-09-15T08:24:14.039Z,22.9600
2022-09-15T08:25:16.321Z,22.9800
2022-09-15T08:26:18.574Z,23.0200
2022-09-15T08:27:20.842Z,23.0400
2022-09-15T08:28:20.975Z,23.0600
2022-09-15T08:29:23.266Z,23.0600
2022-09-15T08:30:25.549Z,23.0700
2022-09-15T08:31:27.852Z,23.0500
2022-09-15T08:32:29.929Z,23.0300
2022-09-15T08:33:32.145Z,23.0200
2022-09-15T08:34:34.352Z,22.9400
2022-09-15T08:35:36.545Z,22.9400
2022-09-15T08:36:38.699Z,22.9400
2022-09-15T08:37:40.890Z,22.9600
2022-09-15T08:38:43.143Z,22.9900
2022-09-15T08:39:45.366Z,22.9800
2022-09-15T08:40:47.578Z,22.9300
2022-09-15T08:41:49.761Z,22.8700
2022-09-15T08:42:44.903Z,22.7900
2022-09-15T08:43:43.634Z,22.8800
2022-09-15T08:44:45.729Z,22.9100
2022-09-15T08:45:47.944Z,22.9400
2022-09-15T08:46:50.267Z,22.9200
2022-09-15T08:47:52.374Z,22.9200
2022-09-15T08:48:54.601Z,22.9200
2022-09-15T08:49:56.804Z,22.9400
2022-09-15T08:50:59.082Z,22.9300
2022-09-15T08:51:59.165Z,22.9400
2022-09-15T08:53:01.375Z,22.9700
2022-09-15T08:54:03.647Z,22.9800
2022-09-15T08:55:05.885Z,22.9400
2022-09-15T08:56:10.021Z,22.9300
2022-09-15T08:57:10.444Z,22.9400
2022-09-15T08:58:12.623Z,22.9500
2022-09-15T08:59:14.872Z,22.9400
2022-09-15T09:00:17.212Z,22.9600
2022-09-15T09:01:19.447Z,22.9100
2022-09-15T09:02:19.634Z,22.9400
2022-09-15T09:03:21.785Z,22.9500
2022-09-15T09:04:24.007Z,22.9300
2022-09-15T09:05:26.277Z,22.8600
2022-09-15T09:06:28.524Z,22.8700
2022-09-15T09:07:30.791Z,22.8800
2022-09-15T09:08:33.036Z,22.9000
2022-09-15T09:09:35.285Z,22.9200
2022-09-15T09:10:37.509Z,22.9600
2022-09-15T09:11:37.606Z,22.9600
2022-09-15T09:12:39.898Z,22.9800
2022-09-15T09:13:42.116Z,22.9300
2022-09-15T09:14:44.410Z,22.9300
2022-09-15T09:15:46.772Z,22.9100
2022-09-15T09:16:48.922Z,22.8900
2022-09-15T09:17:51.314Z,22.9700
2022-09-15T09:18:53.483Z,23.0700
2022-09-15T09:19:53.600Z,23.0900
2022-09-15T09:20:55.859Z,23.1300
2022-09-15T09:21:58.081Z,23.1100
2022-09-15T09:23:00.286Z,23.1200
2022-09-15T09:24:02.391Z,23.1000
2022-09-15T09:25:21.281Z,23.0700
2022-09-15T09:26:10.444Z,23.0700
2022-09-15T09:27:08.976Z,23.0800
2022-09-15T09:28:11.180Z,23.0700
2022-09-15T09:29:13.356Z,23.0800
2022-09-15T09:30:15.555Z,23.0700
2022-09-15T09:31:17.825Z,23.0900
2022-09-15T09:32:21.749Z,23.0900
2022-09-15T09:33:22.334Z,23.0200
2022-09-15T09:34:22.329Z,23.0200
2022-09-15T09:35:24.616Z,22.9600
2022-09-15T09:36:26.916Z,22.9700
2022-09-15T09:37:29.197Z,22.9900
2022-09-15T09:38:31.506Z,23.0000
2022-09-15T09:39:33.763Z,23.0000
2022-09-15T09:40:36.101Z,23.0200
2022-09-15T09:41:38.257Z,23.0000
2022-09-15T09:42:38.328Z,22.9800
2022-09-15T09:43:40.622Z,22.9600
2022-09-15T09:44:42.823Z,22.9900
2022-09-15T09:45:45.131Z,23.0200
2022-09-15T09:46:47.394Z,23.0700
2022-09-15T09:47:49.616Z,23.0900
2022-09-15T09:48:49.801Z,23.1300
2022-09-15T09:49:52.084Z,23.1800
2022-09-15T09:50:54.307Z,23.1700
2022-09-15T09:51:56.608Z,23.1600
2022-09-15T09:52:58.919Z,23.1500
2022-09-15T09:54:01.285Z,23.1300
2022-09-15T09:55:03.580Z,23.1400
2022-09-15T09:56:05.893Z,23.1200
2022-09-15T09:57:06.018Z,23.1400
2022-09-15T09:58:08.317Z,23.1500
2022-09-15T09:59:10.622Z,23.1300
2022-09-15T10:00:12.906Z,23.1400
2022-09-15T10:01:15.274Z,23.1500
2022-09-15T10:02:17.408Z,23.1500
2022-09-15T10:03:19.633Z,23.1500
2022-09-15T10:04:21.973Z,23.1700
2022-09-15T10:05:24.051Z,23.1500
2022-09-15T10:06:24.130Z,23.1700
2022-09-15T10:07:26.368Z,23.2000
2022-09-15T10:08:28.574Z,23.2000
2022-09-15T10:09:33.394Z,23.2400
2022-09-15T10:10:32.979Z,23.2400
2022-09-15T10:11:35.214Z,23.2300
2022-09-15T10:12:37.447Z,23.2200
2022-09-15T10:13:39.687Z,23.2300
2022-09-15T10:14:41.926Z,23.2500
2022-09-15T10:15:44.148Z,23.2700
2022-09-15T10:16:46.405Z,23.2800
2022-09-15T10:17:48.604Z,23.2500
2022-09-15T10:18:54.327Z,23.2700
2022-09-15T10:19:51.062Z,23.2600
2022-09-15T10:20:53.303Z,23.2400
2022-09-15T10:21:55.575Z,23.2300
2022-09-15T10:22:57.887Z,23.2200
2022-09-15T10:24:00.107Z,23.2300
2022-09-15T10:25:02.377Z,23.2500
2022-09-15T10:26:02.362Z,23.2600
2022-09-15T10:27:04.513Z,23.2900
2022-09-15T10:28:06.688Z,23.3400
2022-09-15T10:29:08.846Z,23.3300
2022-09-15T10:30:11.080Z,23.3500
2022-09-15T10:31:13.292Z,23.3800
2022-09-15T10:32:15.515Z,23.3700
2022-09-15T10:33:17.693Z,23.3600
2022-09-15T10:34:19.879Z,23.3500
2022-09-15T10:35:22.120Z,23.3600
2022-09-15T10:36:24.281Z,23.3900
2022-09-15T10:37:26.480Z,23.3300
2022-09-15T10:38:28.712Z,23.3400
2022-09-15T10:39:30.944Z,23.3300
2022-09-15T10:40:33.278Z,23.3700
2022-09-15T10:41:35.326Z,23.3700
2022-09-15T10:42:37.512Z,23.3400
2022-09-15T10:43:39.719Z,23.3800
2022-09-15T10:44:41.940Z,23.3900
2022-09-15T10:45:42.076Z,23.4100
2022-09-15T10:46:44.209Z,23.3900
2022-09-15T10:47:46.371Z,23.3900
2022-09-15T10:48:48.523Z,23.3900
2022-09-15T10:49:50.676Z,23.4200
2022-09-15T10:50:52.893Z,23.4500
2022-09-15T10:51:55.024Z,23.4300
2022-09-15T10:52:57.220Z,23.4400
2022-09-15T10:53:59.585Z,23.4400
2022-09-15T10:55:01.637Z,23.4700
2022-09-15T10:56:03.875Z,23.4700
2022-09-15T10:57:06.011Z,23.4800
2022-09-15T10:58:08.172Z,23.5100
2022-09-15T10:59:10.321Z,23.5100
2022-09-15T11:00:12.473Z,23.5500
2022-09-15T11:01:14.742Z,23.5400
2022-09-15T11:02:16.826Z,23.5500
2022-09-15T11:03:19.012Z,23.5700
2022-09-15T11:04:21.230Z,23.5900
2022-09-15T11:05:23.421Z,23.5900
2022-09-15T11:06:25.643Z,23.6500
2022-09-15T11:07:27.771Z,23.6400
2022-09-15T11:08:29.956Z,23.6200
2022-09-15T11:09:32.126Z,23.6300
2022-09-15T11:10:34.263Z,23.5800
2022-09-15T11:11:36.450Z,23.5500
2022-09-15T11:12:38.572Z,23.5700
2022-09-15T11:13:40.765Z,23.5800
2022-09-15T11:14:40.779Z,23.5500
2022-09-15T11:15:42.863Z,23.5500
2022-09-15T11:16:45.146Z,23.5700
2022-09-15T11:17:47.235Z,23.5800
2022-09-15T11:18:49.455Z,23.5900
2022-09-15T11:19:51.689Z,23.5900
2022-09-15T11:20:53.892Z,23.6000
2022-09-15T11:21:56.117Z,23.5700
2022-09-15T11:22:58.249Z,23.5800
2022-09-15T11:24:00.416Z,23.6000
2022-09-15T11:25:02.587Z,23.5800
2022-09-15T11:26:04.769Z,23.5700
2022-09-15T11:27:07.143Z,23.5500
2022-09-15T11:28:09.106Z,23.5300
2022-09-15T11:29:11.256Z,23.5200
2022-09-15T11:30:11.213Z,23.5300
2022-09-15T11:31:13.425Z,23.5400
2022-09-15T11:32:15.590Z,23.5300
2022-09-15T11:33:17.715Z,23.5400
2022-09-15T11:34:19.852Z,23.5600
2022-09-15T11:35:22.032Z,23.5600
2022-09-15T11:36:24.210Z,23.5900
2022-09-15T11:37:26.453Z,23.5900
2022-09-15T11:38:28.546Z,23.5500
2022-09-15T11:39:30.727Z,23.6000
2022-09-15T11:40:32.982Z,23.6300
2022-09-15T11:41:35.070Z,23.6400
2022-09-15T11:42:37.267Z,23.6100
2022-09-15T11:43:39.412Z,23.6000
2022-09-15T11:44:41.578Z,23.5700
2022-09-15T11:45:43.743Z,23.5500
2022-09-15T11:46:45.960Z,23.5600
2022-09-15T11:47:48.103Z,23.5700
2022-09-15T11:48:50.221Z,23.5900
2022-09-15T11:49:52.392Z,23.5900
2022-09-15T11:50:54.544Z,23.6100
2022-09-15T11:51:56.650Z,23.6500
2022-09-15T11:52:58.881Z,23.6300
2022-09-15T11:54:00.970Z,23.6000
2022-09-15T11:55:03.109Z,23.6200
2022-09-15T11:56:05.269Z,23.6300
2022-09-15T11:57:07.426Z,23.6400
2022-09-15T11:58:09.616Z,23.6400
2022-09-15T11:59:11.768Z,23.6200
2022-09-15T12:00:13.895Z,23.6300
2022-09-15T12:01:16.032Z,23.6400
2022-09-15T12:02:18.353Z,23.6500
2022-09-15T12:03:20.441Z,23.6600
2022-09-15T12:04:22.559Z,23.6400
2022-09-15T12:05:24.689Z,23.6600
2022-09-15T12:06:26.842Z,23.6800
2022-09-15T12:08:05.726Z,23.6200
2022-09-15T12:09:07.893Z,23.6200
2022-09-15T12:10:10.062Z,23.6500
2022-09-15T12:11:12.273Z,23.6400
2022-09-15T12:12:14.487Z,23.5500
2022-09-15T12:13:14.558Z,23.5500
2022-09-15T12:14:16.806Z,23.5700
2022-09-15T12:15:18.984Z,23.6000
2022-09-15T12:16:21.243Z,23.6300
2022-09-15T12:17:23.375Z,23.6400
2022-09-15T12:18:42.719Z,23.6600
2022-09-15T12:19:27.819Z,23.6500
2022-09-15T12:20:30.012Z,23.6100
2022-09-15T12:21:32.243Z,23.6300
2022-09-15T12:22:34.479Z,23.5900
2022-09-15T12:23:36.745Z,23.6100
2022-09-15T12:24:38.983Z,23.6200
2022-09-15T12:25:41.194Z,23.6500
2022-09-15T12:26:41.246Z,23.6600
2022-09-15T12:27:43.475Z,23.6600
2022-09-15T12:28:45.716Z,23.6500
2022-09-15T12:29:47.942Z,23.6600
2022-09-15T12:30:50.150Z,23.6800
2022-09-15T12:31:52.385Z,23.6900
2022-09-15T12:32:54.615Z,23.6700
2022-09-15T12:33:56.824Z,23.6900